Terminal Aerodrome Forecast
Issued by NWS

Home | Current Version | Previous Version | Text Only | Print | Product List | Glossary On
Versions: 1 2 3 4 5 6 7 8 9 10 11 12 13 14 15
000
FTAK31 PAJN 281122
TAFAJN
TAF
PAJN 281122Z 2812/2912 11012KT P6SM -RA FEW020 BKN025 OVC050
      WS020/17030KT
     FM281400 12010KT P6SM -RA SCT020 OVC030
     FM281900 15007KT P6SM -SHRA SCT020 OVC035
     FM290800 10005KT 4SM -SHRA SCT010 SCT025 OVC040=

USA.gov is the U.S. government's official web portal to all federal, state and local government web resources and services.